createdAt,value
2018-10-21T00:01:52.557Z,13.75
2018-10-21T00:04:20.248Z,13.08
2018-10-21T00:06:47.944Z,12.98
2018-10-21T00:09:15.663Z,14.30
2018-10-21T00:11:43.394Z,13.75
2018-10-21T00:14:11.085Z,13.25
2018-10-21T00:16:38.785Z,12.40
2018-10-21T00:19:06.581Z,14.05
2018-10-21T00:21:34.300Z,13.28
2018-10-21T00:24:02.018Z,14.07
2018-10-21T00:26:29.740Z,12.45
2018-10-21T00:28:57.433Z,12.73
2018-10-21T00:31:25.135Z,13.03
2018-10-21T00:33:52.818Z,18.25
2018-10-21T00:36:20.534Z,21.80
2018-10-21T00:38:48.214Z,14.18
2018-10-21T00:41:15.913Z,14.58
2018-10-21T00:43:43.583Z,14.07
2018-10-21T00:46:11.300Z,15.10
2018-10-21T00:48:38.983Z,17.07
2018-10-21T00:51:06.713Z,19.65
2018-10-21T00:53:34.393Z,17.30
2018-10-21T00:56:02.089Z,16.40
2018-10-21T00:58:29.821Z,14.80
2018-10-21T01:00:57.517Z,17.25
2018-10-21T01:03:25.222Z,15.40
2018-10-21T01:05:52.942Z,15.83
2018-10-21T01:08:20.669Z,22.80
2018-10-21T01:10:48.389Z,17.12
2018-10-21T01:13:16.133Z,16.70
2018-10-21T01:15:43.853Z,14.20
2018-10-21T01:18:11.625Z,15.48
2018-10-21T01:20:39.328Z,14.33
2018-10-21T01:23:07.021Z,16.12
2018-10-21T01:25:34.712Z,13.50
2018-10-21T01:28:02.473Z,17.73
2018-10-21T01:30:30.169Z,24.67
2018-10-21T01:32:57.901Z,18.20
2018-10-21T01:35:25.622Z,14.87
2018-10-21T01:37:53.378Z,14.40
2018-10-21T01:40:40.552Z,13.65
2018-10-21T01:43:09.301Z,15.43
2018-10-21T01:45:37.048Z,14.73
2018-10-21T01:48:06.261Z,15.72
2018-10-21T01:50:33.940Z,12.93
2018-10-21T01:53:02.860Z,13.88
2018-10-21T01:55:30.596Z,15.45
2018-10-21T01:57:58.751Z,14.65
2018-10-21T02:00:27.240Z,14.30
2018-10-21T02:02:55.556Z,14.15
2018-10-21T02:05:23.426Z,14.98
2018-10-21T02:07:51.143Z,17.20
2018-10-21T02:10:18.874Z,15.18
2018-10-21T02:12:46.568Z,16.12
2018-10-21T02:15:14.462Z,16.70
2018-10-21T02:17:42.297Z,15.48
2018-10-21T02:20:12.022Z,16.20
2018-10-21T02:22:40.372Z,15.38
2018-10-21T02:25:08.201Z,14.53
2018-10-21T02:27:36.524Z,16.60
2018-10-21T02:30:06.378Z,16.32
2018-10-21T02:32:34.052Z,15.80
2018-10-21T02:35:01.789Z,16.45
2018-10-21T02:37:29.470Z,15.35
2018-10-21T02:39:57.226Z,15.32
2018-10-21T02:42:24.924Z,15.88
2018-10-21T02:44:52.646Z,15.28
2018-10-21T02:47:20.353Z,14.95
2018-10-21T02:49:48.022Z,14.75
2018-10-21T02:52:15.721Z,17.60
2018-10-21T02:54:43.793Z,14.50
2018-10-21T02:57:12.896Z,15.05
2018-10-21T02:59:40.500Z,14.85
2018-10-21T03:02:08.219Z,14.05
2018-10-21T03:04:35.904Z,14.65
2018-10-21T03:07:03.710Z,14.33
2018-10-21T03:09:31.797Z,15.30
2018-10-21T03:11:59.621Z,16.50
2018-10-21T03:14:27.380Z,13.53
2018-10-21T03:16:55.113Z,15.05
2018-10-21T03:19:22.817Z,13.55
2018-10-21T03:21:50.518Z,14.50
2018-10-21T03:24:18.412Z,14.03
2018-10-21T03:26:46.989Z,14.47
2018-10-21T03:29:14.697Z,15.18
2018-10-21T03:31:42.395Z,13.85
2018-10-21T03:34:10.125Z,14.20
2018-10-21T03:36:37.776Z,12.58
2018-10-21T03:39:06.895Z,13.40
2018-10-21T03:41:34.685Z,13.35
2018-10-21T03:44:02.440Z,13.38
2018-10-21T03:46:30.158Z,14.60
2018-10-21T03:48:57.900Z,14.23
2018-10-21T03:51:25.608Z,15.85
2018-10-21T03:53:53.302Z,16.50
2018-10-21T03:56:20.985Z,15.78
2018-10-21T03:58:48.669Z,15.55
2018-10-21T04:01:16.405Z,15.32
2018-10-21T04:03:44.083Z,16.25
2018-10-21T04:06:11.829Z,16.05
2018-10-21T04:08:39.513Z,15.88
2018-10-21T04:11:07.220Z,14.98
2018-10-21T04:13:34.890Z,16.25
2018-10-21T04:16:02.626Z,15.95
2018-10-21T04:18:30.317Z,15.40
2018-10-21T04:20:58.030Z,16.70
2018-10-21T04:23:25.709Z,17.30
2018-10-21T04:25:53.441Z,16.97
2018-10-21T04:28:21.278Z,18.35
2018-10-21T04:30:48.860Z,17.25
2018-10-21T04:33:52.401Z,16.50
2018-10-21T04:36:22.273Z,17.07
2018-10-21T04:40:08.238Z,16.90
2018-10-21T04:42:35.826Z,16.65
2018-10-21T04:45:03.800Z,15.20
2018-10-21T04:47:31.628Z,15.43
2018-10-21T04:49:59.316Z,15.78
2018-10-21T04:52:28.041Z,15.88
2018-10-21T04:55:00.274Z,16.15
2018-10-21T04:57:28.040Z,15.48
2018-10-21T04:59:55.735Z,15.70
2018-10-21T05:02:23.423Z,15.35
2018-10-21T05:04:51.133Z,14.80
2018-10-21T05:07:18.901Z,15.70
2018-10-21T05:09:46.555Z,14.78
2018-10-21T05:12:14.298Z,16.30
2018-10-21T05:14:41.974Z,14.40
2018-10-21T05:17:09.665Z,15.25
2018-10-21T05:19:37.397Z,15.68
2018-10-21T05:22:05.672Z,15.08
2018-10-21T05:24:33.373Z,14.70
2018-10-21T05:27:01.121Z,14.28
2018-10-21T05:29:28.806Z,14.68
2018-10-21T05:31:56.506Z,14.93
2018-10-21T05:34:24.216Z,15.10
2018-10-21T05:36:51.905Z,13.93
2018-10-21T05:39:19.604Z,13.00
2018-10-21T05:41:47.276Z,12.75
2018-10-21T05:44:14.990Z,13.75
2018-10-21T05:46:51.753Z,14.53
2018-10-21T05:49:19.641Z,15.72
2018-10-21T05:51:48.824Z,14.03
2018-10-21T05:54:17.417Z,14.23
2018-10-21T05:56:46.401Z,14.45
2018-10-21T05:59:14.575Z,13.60
2018-10-21T06:01:42.844Z,13.98
2018-10-21T06:04:11.533Z,15.23
2018-10-21T06:06:39.217Z,13.78
2018-10-21T06:09:08.623Z,15.18
2018-10-21T06:11:36.365Z,14.90
2018-10-21T06:14:04.758Z,15.70
2018-10-21T06:16:35.984Z,15.35
2018-10-21T06:19:11.185Z,15.03
2018-10-21T06:21:38.977Z,16.60
2018-10-21T06:24:06.645Z,15.85
2018-10-21T06:26:34.376Z,15.50
2018-10-21T06:29:02.121Z,14.65
2018-10-21T06:31:29.880Z,15.98
2018-10-21T06:33:57.582Z,18.32
2018-10-21T06:36:25.281Z,15.63
2018-10-21T06:38:52.970Z,16.77
2018-10-21T06:41:20.686Z,15.23
2018-10-21T06:43:48.364Z,15.93
2018-10-21T06:46:16.064Z,16.37
2018-10-21T06:48:43.765Z,14.80
2018-10-21T06:51:11.581Z,16.23
2018-10-21T06:53:39.194Z,17.57
2018-10-21T06:56:06.870Z,15.50
2018-10-21T06:58:34.609Z,14.93
2018-10-21T07:01:02.291Z,17.07
2018-10-21T07:03:29.997Z,15.35
2018-10-21T07:06:16.188Z,15.18
2018-10-21T07:08:44.449Z,15.63
2018-10-21T07:11:12.413Z,15.10
2018-10-21T07:13:40.182Z,14.45
2018-10-21T07:16:08.561Z,14.18
2018-10-21T07:18:36.348Z,13.78
2018-10-21T07:21:04.158Z,13.10
2018-10-21T07:23:31.848Z,15.55
2018-10-21T07:25:59.807Z,13.85
2018-10-21T07:28:27.847Z,14.15
2018-10-21T07:30:55.523Z,13.72
2018-10-21T07:33:23.217Z,16.15
2018-10-21T07:35:50.924Z,14.87
2018-10-21T07:38:18.594Z,14.80
2018-10-21T07:40:46.289Z,13.35
2018-10-21T07:43:14.027Z,12.90
2018-10-21T07:45:41.707Z,13.72
2018-10-21T07:48:09.393Z,12.20
2018-10-21T07:50:37.125Z,11.03
2018-10-21T07:53:05.030Z,12.43
2018-10-21T07:55:32.814Z,11.00
2018-10-21T07:58:00.593Z,11.07
2018-10-21T08:00:28.341Z,11.67
2018-10-21T08:02:56.045Z,11.67
2018-10-21T08:05:34.960Z,10.43
2018-10-21T08:08:21.853Z,10.20
2018-10-21T08:10:49.597Z,10.70
2018-10-21T08:13:18.684Z,11.73
2018-10-21T08:15:46.423Z,12.63
2018-10-21T08:18:14.730Z,13.50
2018-10-21T08:20:43.720Z,11.10
2018-10-21T08:23:12.632Z,11.40
2018-10-21T08:25:40.850Z,11.53
2018-10-21T08:28:08.572Z,11.77
2018-10-21T08:30:36.294Z,12.30
2018-10-21T08:33:04.874Z,10.57
2018-10-21T08:35:32.621Z,11.30
2018-10-21T08:38:00.357Z,10.00
2018-10-21T08:40:28.296Z,10.00
2018-10-21T08:42:56.042Z,10.10
2018-10-21T08:45:23.876Z,10.17
2018-10-21T08:47:51.586Z,9.90
2018-10-21T08:50:19.327Z,10.10
2018-10-21T08:52:47.064Z,9.53
2018-10-21T08:55:14.795Z,9.63
2018-10-21T08:57:42.501Z,9.73
2018-10-21T09:00:12.596Z,9.50
2018-10-21T09:02:40.838Z,11.37
2018-10-21T09:05:10.305Z,9.53
2018-10-21T09:07:39.326Z,9.47
2018-10-21T09:10:10.063Z,10.20
2018-10-21T09:12:38.164Z,9.53
2018-10-21T09:15:08.378Z,9.50
2018-10-21T09:17:36.246Z,10.20
2018-10-21T09:20:04.641Z,9.57
2018-10-21T09:22:32.364Z,9.70
2018-10-21T09:25:00.135Z,8.60
2018-10-21T09:27:27.817Z,9.37
2018-10-21T09:29:55.499Z,7.87
2018-10-21T09:32:23.238Z,7.80
2018-10-21T09:34:50.958Z,7.83
2018-10-21T09:37:18.731Z,7.90
2018-10-21T09:39:46.437Z,7.10
2018-10-21T09:42:14.192Z,7.90
2018-10-21T09:44:41.923Z,7.40
2018-10-21T09:47:09.645Z,8.30
2018-10-21T09:49:37.327Z,8.77
2018-10-21T09:52:05.182Z,8.90
2018-10-21T09:54:32.848Z,8.93
2018-10-21T09:57:00.578Z,9.00
2018-10-21T09:59:28.276Z,9.33
2018-10-21T10:02:01.564Z,10.50
2018-10-21T10:04:29.375Z,10.27
2018-10-21T10:06:57.033Z,9.40
2018-10-21T10:09:24.784Z,8.80
2018-10-21T10:11:52.529Z,7.80
2018-10-21T10:14:20.228Z,7.70
2018-10-21T10:16:47.937Z,9.07
2018-10-21T10:19:15.689Z,9.23
2018-10-21T10:21:43.433Z,10.07
2018-10-21T10:24:11.195Z,8.73
2018-10-21T10:26:38.949Z,8.67
2018-10-21T10:29:06.681Z,8.70
2018-10-21T10:31:34.377Z,9.43
2018-10-21T10:34:02.167Z,10.27
2018-10-21T10:36:29.892Z,9.93
2018-10-21T10:38:57.632Z,8.60
2018-10-21T10:41:25.370Z,9.60
2018-10-21T10:43:53.120Z,9.10
2018-10-21T10:46:20.875Z,9.20
2018-10-21T10:48:48.628Z,8.37
2018-10-21T10:51:16.361Z,7.63
2018-10-21T10:53:44.221Z,8.63
2018-10-21T10:56:11.954Z,8.53
2018-10-21T10:58:39.708Z,6.97
2018-10-21T11:01:07.478Z,7.33
2018-10-21T11:03:35.176Z,7.10
2018-10-21T11:06:02.933Z,8.83
2018-10-21T11:08:30.669Z,7.00
2018-10-21T11:10:58.734Z,7.73
2018-10-21T11:13:26.447Z,6.60
2018-10-21T11:15:54.192Z,6.93
2018-10-21T11:18:21.955Z,6.50
2018-10-21T11:20:49.664Z,7.67
2018-10-21T11:23:17.421Z,6.53
2018-10-21T11:25:45.159Z,7.07
2018-10-21T11:28:12.944Z,7.10
2018-10-21T11:30:40.625Z,6.93
2018-10-21T11:33:08.360Z,7.40
2018-10-21T11:35:36.048Z,6.20
2018-10-21T11:38:03.961Z,6.30
2018-10-21T11:40:31.662Z,5.90
2018-10-21T11:42:59.404Z,5.10
2018-10-21T11:45:27.146Z,5.00
2018-10-21T11:47:54.877Z,6.10
2018-10-21T11:50:22.593Z,5.83
2018-10-21T11:52:50.340Z,5.40
2018-10-21T11:55:18.085Z,5.47
2018-10-21T11:57:45.773Z,5.93
2018-10-21T12:00:13.516Z,5.40
2018-10-21T12:02:41.256Z,5.57
2018-10-21T12:05:09.007Z,4.53
2018-10-21T12:07:36.720Z,5.33
2018-10-21T12:10:04.939Z,4.80
2018-10-21T12:12:32.617Z,4.27
2018-10-21T12:15:00.353Z,4.57
2018-10-21T12:17:28.054Z,3.73
2018-10-21T12:19:55.872Z,4.67
2018-10-21T12:22:23.612Z,5.50
2018-10-21T12:24:51.639Z,4.50
2018-10-21T12:27:19.064Z,4.87
2018-10-21T12:29:46.774Z,4.60
2018-10-21T12:32:14.536Z,3.87
2018-10-21T12:34:42.263Z,4.17
2018-10-21T12:37:10.018Z,3.30
2018-10-21T12:39:37.722Z,3.00
2018-10-21T12:42:05.464Z,3.03
2018-10-21T12:44:33.177Z,3.90
2018-10-21T12:47:00.906Z,2.73
2018-10-21T12:49:28.634Z,3.70
2018-10-21T12:51:56.352Z,3.00
2018-10-21T12:54:24.129Z,3.67
2018-10-21T12:56:51.817Z,3.10
2018-10-21T12:59:19.542Z,2.97
2018-10-21T13:01:47.269Z,2.40
2018-10-21T13:04:15.078Z,2.70
2018-10-21T13:06:42.701Z,3.40
2018-10-21T13:09:10.417Z,3.13
2018-10-21T13:11:38.113Z,3.07
2018-10-21T13:14:05.881Z,3.27
2018-10-21T13:16:33.597Z,3.30
2018-10-21T13:19:01.374Z,3.03
2018-10-21T13:21:29.053Z,2.57
2018-10-21T13:23:56.785Z,3.20
2018-10-21T13:26:24.570Z,3.30
2018-10-21T13:28:52.365Z,3.00
2018-10-21T13:31:20.024Z,2.63
2018-10-21T13:33:47.714Z,3.13
2018-10-21T13:36:15.433Z,3.60
2018-10-21T13:38:43.141Z,3.50
2018-10-21T13:41:10.901Z,3.00
2018-10-21T13:43:38.620Z,2.97
2018-10-21T13:46:06.447Z,2.37
2018-10-21T13:48:34.092Z,3.20
2018-10-21T13:51:02.006Z,3.83
2018-10-21T13:53:29.848Z,2.57
2018-10-21T13:55:57.470Z,3.53
2018-10-21T13:58:25.206Z,4.07
2018-10-21T14:00:52.929Z,3.63
2018-10-21T14:03:20.660Z,3.37
2018-10-21T14:05:48.364Z,3.40
2018-10-21T14:08:16.091Z,3.63
2018-10-21T14:10:43.852Z,2.67
2018-10-21T14:13:11.646Z,4.27
2018-10-21T14:15:39.377Z,4.50
2018-10-21T14:18:07.102Z,3.70
2018-10-21T14:20:34.821Z,4.23
2018-10-21T14:23:02.545Z,3.67
2018-10-21T14:25:30.294Z,4.33
2018-10-21T14:27:58.015Z,4.37
2018-10-21T14:30:25.791Z,4.20
2018-10-21T14:32:53.520Z,3.97
2018-10-21T14:35:21.213Z,3.63
2018-10-21T14:37:48.934Z,4.40
2018-10-21T14:40:16.660Z,4.87
2018-10-21T14:42:44.364Z,4.50
2018-10-21T14:45:12.428Z,3.53
2018-10-21T14:47:40.622Z,3.73
2018-10-21T14:50:09.092Z,3.63
2018-10-21T14:52:37.088Z,3.90
2018-10-21T14:55:05.651Z,4.07
2018-10-21T14:57:33.372Z,5.10
2018-10-21T15:00:01.153Z,3.83
2018-10-21T15:02:28.835Z,3.27
2018-10-21T15:04:56.621Z,3.47
2018-10-21T15:07:24.334Z,3.33
2018-10-21T15:09:52.157Z,3.00
2018-10-21T15:12:19.898Z,4.27
2018-10-21T15:14:47.623Z,3.80
2018-10-21T15:17:15.329Z,3.73
2018-10-21T15:19:43.085Z,3.37
2018-10-21T15:22:10.893Z,3.57
2018-10-21T15:24:38.544Z,3.50
2018-10-21T15:27:07.971Z,3.70
2018-10-21T15:29:35.733Z,3.30
2018-10-21T15:32:03.470Z,3.33
2018-10-21T15:34:31.394Z,3.47
2018-10-21T15:36:59.188Z,3.33
2018-10-21T15:39:26.895Z,4.80
2018-10-21T15:41:54.650Z,3.23
2018-10-21T15:44:22.345Z,3.43
2018-10-21T15:46:50.085Z,4.50
2018-10-21T15:49:17.800Z,3.87
2018-10-21T15:51:45.588Z,4.90
2018-10-21T15:54:13.339Z,2.90
2018-10-21T15:56:41.056Z,3.50
2018-10-21T15:59:08.791Z,4.00
2018-10-21T16:01:36.552Z,4.20
2018-10-21T16:04:04.452Z,3.30
2018-10-21T16:06:32.150Z,3.30
2018-10-21T16:08:59.927Z,4.03
2018-10-21T16:11:27.676Z,3.30
2018-10-21T16:13:55.456Z,3.50
2018-10-21T16:16:23.136Z,4.63
2018-10-21T16:18:50.862Z,3.20
2018-10-21T16:21:18.584Z,3.40
2018-10-21T16:23:46.313Z,3.73
2018-10-21T16:26:14.064Z,3.30
2018-10-21T16:28:41.893Z,3.87
2018-10-21T16:31:09.669Z,3.53
2018-10-21T16:33:37.421Z,3.40
2018-10-21T16:36:05.162Z,4.10
2018-10-21T16:38:32.883Z,5.43
2018-10-21T16:41:00.611Z,4.93
2018-10-21T16:43:28.317Z,4.83
2018-10-21T16:45:56.061Z,3.80
2018-10-21T16:48:23.752Z,3.73
2018-10-21T16:50:51.473Z,4.47
2018-10-21T16:53:19.273Z,4.00
2018-10-21T16:55:46.930Z,5.57
2018-10-21T16:58:14.627Z,5.10
2018-10-21T17:00:42.597Z,4.70
2018-10-21T17:03:10.181Z,4.20
2018-10-21T17:05:37.877Z,4.30
2018-10-21T17:08:05.594Z,5.97
2018-10-21T17:10:33.693Z,4.50
2018-10-21T17:13:01.124Z,4.83
2018-10-21T17:15:28.858Z,3.67
2018-10-21T17:17:56.577Z,5.33
2018-10-21T17:20:24.302Z,4.50
2018-10-21T17:22:52.017Z,4.40
2018-10-21T17:25:19.859Z,4.90
2018-10-21T17:27:47.530Z,5.23
2018-10-21T17:30:16.658Z,4.30
2018-10-21T17:32:44.832Z,4.80
2018-10-21T17:35:12.590Z,4.43
2018-10-21T17:37:40.341Z,5.17
2018-10-21T17:40:09.104Z,5.40
2018-10-21T17:42:36.832Z,5.20
2018-10-21T17:45:06.457Z,4.80
2018-10-21T17:47:34.170Z,4.80
2018-10-21T17:50:01.917Z,5.23
2018-10-21T17:52:29.673Z,4.47
2018-10-21T17:54:57.388Z,4.77
2018-10-21T17:57:25.073Z,5.07
2018-10-21T17:59:52.866Z,4.60
2018-10-21T18:02:20.585Z,4.30
2018-10-21T18:04:48.316Z,4.33
2018-10-21T18:07:16.103Z,4.90
2018-10-21T18:09:43.809Z,5.37
2018-10-21T18:12:11.517Z,3.80
2018-10-21T18:14:39.254Z,5.23
2018-10-21T18:17:06.968Z,4.63
2018-10-21T18:19:34.689Z,7.47
2018-10-21T18:22:02.481Z,5.20
2018-10-21T18:24:30.186Z,5.23
2018-10-21T18:26:57.941Z,5.43
2018-10-21T18:29:25.658Z,5.03
2018-10-21T18:31:53.397Z,5.30
2018-10-21T18:34:21.110Z,4.90
2018-10-21T18:36:48.838Z,5.60
2018-10-21T18:39:16.537Z,5.10
2018-10-21T18:41:44.269Z,5.00
2018-10-21T18:44:11.968Z,6.37
2018-10-21T18:46:39.689Z,6.67
2018-10-21T18:49:07.495Z,5.57
2018-10-21T18:51:35.147Z,5.70
2018-10-21T18:54:02.924Z,4.80
2018-10-21T18:56:30.628Z,6.07
2018-10-21T18:58:58.373Z,4.62
2018-10-21T19:01:28.943Z,5.45
2018-10-21T19:03:56.754Z,5.75
2018-10-21T19:06:24.463Z,6.30
2018-10-21T19:08:52.200Z,6.10
2018-10-21T19:11:19.995Z,4.90
2018-10-21T19:13:47.750Z,4.80
2018-10-21T19:16:15.467Z,5.33
2018-10-21T19:18:43.148Z,5.50
2018-10-21T19:21:10.885Z,5.45
2018-10-21T19:23:38.604Z,6.80
2018-10-21T19:26:06.377Z,5.80
2018-10-21T19:28:34.162Z,6.33
2018-10-21T19:31:01.906Z,6.80
2018-10-21T19:33:29.621Z,6.40
2018-10-21T19:35:57.336Z,6.70
2018-10-21T19:38:25.060Z,6.87
2018-10-21T19:40:52.870Z,6.45
2018-10-21T19:43:20.755Z,7.58
2018-10-21T19:45:48.345Z,8.25
2018-10-21T19:48:16.075Z,7.03
2018-10-21T19:50:43.778Z,7.15
2018-10-21T19:53:11.493Z,6.70
2018-10-21T19:55:39.213Z,6.50
2018-10-21T19:58:07.006Z,6.40
2018-10-21T20:00:34.686Z,6.83
2018-10-21T20:03:02.425Z,6.30
2018-10-21T20:05:30.131Z,7.83
2018-10-21T20:07:57.853Z,6.33
2018-10-21T20:10:25.569Z,7.62
2018-10-21T20:12:53.338Z,6.87
2018-10-21T20:15:21.069Z,7.37
2018-10-21T20:17:48.854Z,6.63
2018-10-21T20:20:16.580Z,6.78
2018-10-21T20:22:44.317Z,7.63
2018-10-21T20:25:12.155Z,7.15
2018-10-21T20:27:40.115Z,6.45
2018-10-21T20:30:08.913Z,7.25
2018-10-21T20:32:36.703Z,7.83
2018-10-21T20:35:05.897Z,7.95
2018-10-21T20:37:33.618Z,7.25
2018-10-21T20:40:01.343Z,6.92
2018-10-21T20:42:29.113Z,8.83
2018-10-21T20:44:56.849Z,8.50
2018-10-21T20:47:24.548Z,8.58
2018-10-21T20:49:52.261Z,9.13
2018-10-21T20:52:19.985Z,7.85
2018-10-21T20:54:48.613Z,8.48
2018-10-21T20:57:16.327Z,8.78
2018-10-21T20:59:45.276Z,8.70
2018-10-21T21:02:13.829Z,8.15
2018-10-21T21:04:41.602Z,7.65
2018-10-21T21:07:09.876Z,8.25
2018-10-21T21:09:38.501Z,8.40
2018-10-21T21:12:07.118Z,8.58
2018-10-21T21:14:35.001Z,8.78
2018-10-21T21:17:03.510Z,8.43
2018-10-21T21:19:31.280Z,8.35
2018-10-21T21:21:59.085Z,8.33
2018-10-21T21:24:27.094Z,8.18
2018-10-21T21:26:54.892Z,9.18
2018-10-21T21:29:22.602Z,7.92
2018-10-21T21:31:50.332Z,8.38
2018-10-21T21:34:18.134Z,7.55
2018-10-21T21:36:45.811Z,7.30
2018-10-21T21:39:14.513Z,9.25
2018-10-21T21:41:43.612Z,7.80
2018-10-21T21:44:11.342Z,7.78
2018-10-21T21:46:39.865Z,7.80
2018-10-21T21:49:08.634Z,6.70
2018-10-21T21:51:36.525Z,6.83
2018-10-21T21:54:04.610Z,8.45
2018-10-21T21:56:32.346Z,8.60
2018-10-21T21:59:00.055Z,7.35
2018-10-21T22:01:34.496Z,6.40
2018-10-21T22:04:02.261Z,8.23
2018-10-21T22:06:29.981Z,8.25
2018-10-21T22:08:57.941Z,7.80
2018-10-21T22:11:25.653Z,7.35
2018-10-21T22:13:53.454Z,7.40
2018-10-21T22:16:21.183Z,8.15
2018-10-21T22:18:48.917Z,8.13
2018-10-21T22:21:16.625Z,7.30
2018-10-21T22:23:44.361Z,7.65
2018-10-21T22:26:12.090Z,7.75
2018-10-21T22:28:39.803Z,7.15
2018-10-21T22:31:07.518Z,7.33
2018-10-21T22:33:35.245Z,8.85
2018-10-21T22:36:02.996Z,7.95
2018-10-21T22:38:30.722Z,7.75
2018-10-21T22:40:58.438Z,7.10
2018-10-21T22:43:26.243Z,7.17
2018-10-21T22:45:53.948Z,7.00
2018-10-21T22:48:21.708Z,7.25
2018-10-21T22:50:49.404Z,7.47
2018-10-21T22:53:17.101Z,6.92
2018-10-21T22:55:44.811Z,7.05
2018-10-21T22:58:12.581Z,6.67
2018-10-21T23:00:40.288Z,7.55
2018-10-21T23:03:08.040Z,6.62
2018-10-21T23:05:35.788Z,6.45
2018-10-21T23:08:03.484Z,7.28
2018-10-21T23:10:31.205Z,6.83
2018-10-21T23:12:58.927Z,7.30
2018-10-21T23:15:26.649Z,6.25
2018-10-21T23:17:54.351Z,6.22
2018-10-21T23:20:22.093Z,6.60
2018-10-21T23:22:49.772Z,6.17
2018-10-21T23:25:17.506Z,6.20
2018-10-21T23:27:45.209Z,7.50
2018-10-21T23:30:13.019Z,7.40
2018-10-21T23:32:40.640Z,5.97
2018-10-21T23:35:08.359Z,6.83
2018-10-21T23:37:36.064Z,6.78
2018-10-21T23:40:04.397Z,7.10
2018-10-21T23:42:32.061Z,7.20
2018-10-21T23:44:59.774Z,7.30
2018-10-21T23:47:27.508Z,6.47
2018-10-21T23:49:55.229Z,6.15
2018-10-21T23:52:22.936Z,6.03
2018-10-21T23:54:50.652Z,7.25
2018-10-21T23:57:18.405Z,6.58
2018-10-21T23:59:46.129Z,6.92
